Conditions actuelles
Data
Offline




Pression
30.41 (inHG) - 1029.92 (mb)
Visibilité

10.0 (km) - 6.2 (miles)
   Température
5  °C
41°F
3  °C
Point de rosée
87  %
 Humidité
   Vitesse du vent
5  km/h
3  kts
3  mph
1.3  m/s
   Direction du vent
 190°
Du Sud
   Données d'aéroport
LFBU
Location Angoulême-Brie-Champniers 6 km (3.73 mi)
Metar :LFBU 172100Z AUTO 19003KT 9999 ///TCU 05/03 Q1030
17-01-2020 22:00:00
   Information brute de métar
Le METAR brut est le format le plus répandu dans le monde pour la transmission de données météorologiques d'observation. Il est hautement standardisé par l'Organisation de l'aviation civile internationale (OACI), ce qui lui permet d'être compris dans la plupart des pays.
   API Info
Données fournies par
https://www.checkwx.com/weather/LFBU
   © Info
Les scripts CSS / SVG / PHP ont été développés par weather34.com pour une utilisation dans le modèle weather34 © 2015-2020

Guide Info fourni par Metar-Wikipedia